Time;durP1;ratioP1;P1;durP2;ratioP2;P2;SDS_P1;SDS_P2;PMS_P1;PMS_P2;Temp;Humidity;BMP_temperature;BMP_pressure;BME280_temperature;BME280_humidity;BME280_pressure;Samples;Min_cycle;Max_cycle;Signal;HPM_P1;HPM_P2
2022/08/26 00:00:44;;;;;;;3.35;1.52;;;;;;;;;;5011386;28;20283;-89
2022/08/26 00:03:10;;;;;;;3.25;1.30;;;;;;;;;;4997354;28;20050;-90
2022/08/26 00:05:37;;;;;;;3.65;1.58;;;;;;;;;;5009560;28;20047;-90
2022/08/26 00:08:03;;;;;;;2.20;1.40;;;;;;;;;;5013146;28;20059;-89
2022/08/26 00:10:29;;;;;;;3.92;1.73;;;;;;;;;;5015541;28;20051;-91
2022/08/26 00:12:55;;;;;;;2.13;1.25;;;;;;;;;;5014131;28;20094;-91
2022/08/26 00:15:21;;;;;;;3.35;1.88;;;;;;;;;;4998585;28;20043;-91
2022/08/26 00:17:48;;;;;;;3.35;1.00;;;;;;;;;;5012542;28;20632;-91
2022/08/26 00:20:15;;;;;;;3.60;1.55;;;;;;;;;;4996165;28;20540;-90
2022/08/26 00:22:42;;;;;;;2.80;1.67;;;;;;;;;;5011106;28;20122;-91
2022/08/26 00:25:09;;;;;;;5.25;1.95;;;;;;;;;;4997821;28;20322;-91
2022/08/26 00:27:35;;;;;;;4.47;1.90;;;;;;;;;;4933495;28;20093;-91
2022/08/26 00:30:01;;;;;;;6.70;2.03;;;;;;;;;;4932809;28;20535;-91
2022/08/26 00:32:27;;;;;;;4.38;2.20;;;;;;;;;;5018089;28;20044;-90
2022/08/26 00:34:54;;;;;;;4.13;2.25;;;;;;;;;;5007428;28;20052;-91
2022/08/26 00:37:20;;;;;;;3.83;2.80;;;;;;;;;;5018997;28;20054;-91
2022/08/26 00:39:46;;;;;;;3.08;1.92;;;;;;;;;;5017560;28;20114;-91
2022/08/26 00:42:12;;;;;;;4.50;2.40;;;;;;;;;;4940065;28;20044;-90
2022/08/26 00:44:38;;;;;;;3.17;2.22;;;;;;;;;;5002228;28;20045;-90
2022/08/26 00:47:07;;;;;;;7.10;2.72;;;;;;;;;;4937252;28;20127;-89
2022/08/26 00:49:41;;;;;;;4.80;2.38;;;;;;;;;;5006200;28;20062;-90
2022/08/26 00:52:09;;;;;;;5.35;2.20;;;;;;;;;;4954891;28;20103;-90
2022/08/26 00:54:39;;;;;;;5.05;2.60;;;;;;;;;;4936212;28;20130;-89
2022/08/26 00:57:08;;;;;;;4.55;3.17;;;;;;;;;;5016089;28;20052;-90
2022/08/26 00:59:34;;;;;;;4.15;2.90;;;;;;;;;;4934475;28;20044;-89
2022/08/26 01:02:01;;;;;;;4.68;3.05;;;;;;;;;;5005754;28;20047;-89
2022/08/26 01:04:28;;;;;;;3.92;2.67;;;;;;;;;;4935748;28;20044;-88
2022/08/26 01:06:54;;;;;;;4.60;3.20;;;;;;;;;;5009526;28;20050;-88
2022/08/26 01:09:20;;;;;;;5.38;2.90;;;;;;;;;;5028198;28;20046;-89
2022/08/26 01:11:48;;;;;;;4.65;2.92;;;;;;;;;;5018035;28;20498;-88
2022/08/26 01:14:16;;;;;;;4.47;3.50;;;;;;;;;;5012714;28;20042;-89
2022/08/26 01:16:42;;;;;;;5.15;3.90;;;;;;;;;;5028898;28;20047;-90
2022/08/26 01:19:29;;;;;;;7.97;3.38;;;;;;;;;;5029496;28;20056;-88
2022/08/26 01:22:18;;;;;;;5.03;3.67;;;;;;;;;;5014658;28;20049;-89
2022/08/26 01:24:44;;;;;;;6.60;4.07;;;;;;;;;;4994903;28;20066;-89
2022/08/26 01:27:13;;;;;;;7.18;4.82;;;;;;;;;;5029195;28;20085;-89
2022/08/26 01:29:40;;;;;;;8.27;5.43;;;;;;;;;;5029341;28;20990;-89
2022/08/26 01:32:08;;;;;;;7.50;5.25;;;;;;;;;;5027676;28;20042;-86
2022/08/26 01:34:36;;;;;;;8.35;5.57;;;;;;;;;;5029521;28;20050;-89
2022/08/26 01:37:11;;;;;;;8.30;5.55;;;;;;;;;;5012520;28;20528;-89
2022/08/26 01:39:38;;;;;;;9.40;6.15;;;;;;;;;;5013181;28;20042;-90
2022/08/26 01:42:07;;;;;;;8.27;5.78;;;;;;;;;;5013541;28;20448;-90
2022/08/26 01:44:40;;;;;;;11.63;6.20;;;;;;;;;;5012241;28;20165;-89
2022/08/26 01:47:08;;;;;;;10.00;6.45;;;;;;;;;;5027384;28;20552;-89
2022/08/26 01:49:35;;;;;;;10.02;6.80;;;;;;;;;;5011457;28;20050;-89
2022/08/26 01:52:02;;;;;;;13.27;6.88;;;;;;;;;;5028031;28;20164;-89
2022/08/26 01:54:28;;;;;;;8.63;6.88;;;;;;;;;;5029834;28;20148;-89
2022/08/26 01:56:54;;;;;;;12.07;7.30;;;;;;;;;;5012666;28;20108;-89
2022/08/26 01:59:23;;;;;;;11.75;7.35;;;;;;;;;;5012553;28;20114;-89
2022/08/26 02:01:50;;;;;;;11.75;6.78;;;;;;;;;;5025600;28;20056;-89
2022/08/26 02:04:25;;;;;;;8.63;6.88;;;;;;;;;;5013181;28;20093;-89
2022/08/26 02:06:52;;;;;;;10.43;7.18;;;;;;;;;;5016641;28;20870;-89
2022/08/26 02:09:19;;;;;;;11.23;7.68;;;;;;;;;;5011920;28;20069;-89
2022/08/26 02:11:46;;;;;;;11.35;7.75;;;;;;;;;;5011513;28;20039;-90
2022/08/26 02:14:23;;;;;;;13.15;8.13;;;;;;;;;;5012043;28;20391;-89
2022/08/26 02:16:51;;;;;;;12.18;7.63;;;;;;;;;;5008760;28;20556;-89
2022/08/26 02:19:29;;;;;;;9.88;7.35;;;;;;;;;;5013140;28;20041;-90
2022/08/26 02:21:57;;;;;;;10.07;6.97;;;;;;;;;;5026865;28;20147;-89
2022/08/26 02:24:26;;;;;;;12.85;6.70;;;;;;;;;;5028267;28;20528;-89
2022/08/26 02:26:52;;;;;;;10.88;6.85;;;;;;;;;;5011271;28;20045;-89
2022/08/26 02:29:24;;;;;;;15.45;8.18;;;;;;;;;;5011754;28;20125;-89
2022/08/26 02:31:51;;;;;;;11.75;6.45;;;;;;;;;;5028436;28;20861;-89
2022/08/26 02:34:21;;;;;;;21.42;9.80;;;;;;;;;;5009701;28;20042;-89
2022/08/26 02:36:48;;;;;;;13.73;8.50;;;;;;;;;;5027555;28;20046;-90
2022/08/26 02:39:15;;;;;;;16.38;9.38;;;;;;;;;;5017797;28;20535;-89
2022/08/26 02:41:42;;;;;;;17.63;9.10;;;;;;;;;;5026700;28;20128;-89
2022/08/26 02:44:08;;;;;;;16.77;9.68;;;;;;;;;;5026359;28;20037;-89
2022/08/26 02:46:35;;;;;;;15.27;10.27;;;;;;;;;;5012332;28;20030;-89
2022/08/26 02:49:02;;;;;;;18.23;10.68;;;;;;;;;;5010468;28;20057;-89
2022/08/26 02:51:28;;;;;;;17.25;10.18;;;;;;;;;;5016528;28;20711;-89
2022/08/26 02:53:55;;;;;;;16.33;10.60;;;;;;;;;;5025029;28;20049;-89
2022/08/26 02:56:22;;;;;;;15.23;9.65;;;;;;;;;;5017154;28;20042;-90
2022/08/26 02:58:49;;;;;;;14.65;8.90;;;;;;;;;;5011345;28;20368;-91
2022/08/26 03:01:19;;;;;;;15.13;9.48;;;;;;;;;;5028465;28;20038;-90
2022/08/26 03:03:45;;;;;;;15.20;8.70;;;;;;;;;;5011523;28;20042;-90
2022/08/26 03:06:12;;;;;;;14.15;9.02;;;;;;;;;;5022885;28;20050;-88
2022/08/26 03:08:38;;;;;;;16.02;9.35;;;;;;;;;;5015771;28;20138;-89
2022/08/26 03:11:04;;;;;;;16.15;10.27;;;;;;;;;;5000889;28;20054;-89
2022/08/26 03:13:30;;;;;;;20.17;9.88;;;;;;;;;;5010247;28;20067;-89
2022/08/26 03:15:56;;;;;;;16.65;10.52;;;;;;;;;;4998703;28;20455;-89
2022/08/26 03:18:22;;;;;;;17.30;10.38;;;;;;;;;;4932651;28;20871;-89
2022/08/26 03:20:48;;;;;;;18.48;11.13;;;;;;;;;;4996576;28;20048;-89
2022/08/26 03:23:15;;;;;;;21.80;11.70;;;;;;;;;;5012232;28;20078;-89
2022/08/26 03:25:41;;;;;;;16.13;9.95;;;;;;;;;;4997297;28;20058;-89
2022/08/26 03:28:08;;;;;;;20.10;11.10;;;;;;;;;;4932597;28;20118;-89
2022/08/26 03:30:40;;;;;;;18.85;11.10;;;;;;;;;;5013000;28;20059;-89
2022/08/26 03:33:07;;;;;;;19.58;11.25;;;;;;;;;;4932866;28;20047;-89
2022/08/26 03:35:33;;;;;;;16.73;9.98;;;;;;;;;;4938376;28;20044;-89
2022/08/26 03:38:00;;;;;;;18.02;10.98;;;;;;;;;;5020202;28;20048;-88
2022/08/26 03:40:26;;;;;;;18.17;11.55;;;;;;;;;;5003537;28;20048;-89
2022/08/26 03:42:52;;;;;;;23.98;12.02;;;;;;;;;;4985034;28;20056;-88
2022/08/26 03:45:19;;;;;;;19.85;10.98;;;;;;;;;;5007758;28;20075;-88
2022/08/26 03:47:46;;;;;;;18.55;11.63;;;;;;;;;;4937803;28;20048;-89
2022/08/26 03:50:14;;;;;;;19.30;11.65;;;;;;;;;;5011866;28;20051;-89
2022/08/26 03:52:40;;;;;;;18.42;9.82;;;;;;;;;;5022346;28;20075;-87
2022/08/26 03:55:07;;;;;;;17.50;10.38;;;;;;;;;;5012058;28;20054;-87
2022/08/26 03:57:33;;;;;;;18.60;10.75;;;;;;;;;;4947381;28;20060;-88
2022/08/26 03:59:59;;;;;;;18.60;10.70;;;;;;;;;;5026330;28;20044;-89
2022/08/26 04:02:26;;;;;;;15.48;9.20;;;;;;;;;;5020616;28;20628;-89
2022/08/26 04:04:55;;;;;;;22.67;11.07;;;;;;;;;;5009360;28;20539;-90
2022/08/26 04:07:21;;;;;;;16.50;8.98;;;;;;;;;;4942536;28;20059;-89
2022/08/26 04:09:47;;;;;;;15.75;8.85;;;;;;;;;;5025030;28;20040;-89
2022/08/26 04:12:14;;;;;;;17.63;9.70;;;;;;;;;;4942029;28;20043;-90
2022/08/26 04:14:41;;;;;;;21.00;11.82;;;;;;;;;;5026437;28;20049;-89
2022/08/26 04:17:07;;;;;;;17.23;10.18;;;;;;;;;;5025423;28;20039;-90
2022/08/26 04:19:33;;;;;;;23.10;11.70;;;;;;;;;;5009287;28;20051;-89
2022/08/26 04:21:59;;;;;;;22.10;10.95;;;;;;;;;;5007322;28;20040;-89
2022/08/26 04:24:26;;;;;;;21.42;11.57;;;;;;;;;;5004862;28;20606;-89
2022/08/26 04:26:52;;;;;;;17.70;10.15;;;;;;;;;;5007688;28;20043;-89
2022/08/26 04:29:20;;;;;;;20.20;10.90;;;;;;;;;;5006262;28;20876;-90
2022/08/26 04:31:47;;;;;;;16.40;8.82;;;;;;;;;;5010711;28;20541;-90
2022/08/26 04:34:13;;;;;;;21.13;11.15;;;;;;;;;;5022683;28;20048;-89
2022/08/26 04:36:39;;;;;;;16.67;9.32;;;;;;;;;;5003702;28;20044;-89
2022/08/26 04:39:06;;;;;;;19.70;10.13;;;;;;;;;;5005528;28;20080;-90
2022/08/26 04:41:33;;;;;;;21.52;12.15;;;;;;;;;;4938729;28;20060;-90
2022/08/26 04:44:00;;;;;;;21.67;9.70;;;;;;;;;;5021183;28;20885;-89
2022/08/26 04:46:33;;;;;;;20.92;11.18;;;;;;;;;;4938110;28;20062;-89
2022/08/26 04:49:00;;;;;;;20.50;11.73;;;;;;;;;;5021076;28;20735;-89
2022/08/26 04:51:26;;;;;;;17.05;10.18;;;;;;;;;;4939376;28;20052;-90
2022/08/26 04:53:58;;;;;;;19.27;11.30;;;;;;;;;;5022196;28;20219;-89
2022/08/26 04:56:28;;;;;;;19.05;10.45;;;;;;;;;;5006366;28;20071;-90
2022/08/26 04:58:54;;;;;;;21.80;12.55;;;;;;;;;;5018292;28;20607;-89
2022/08/26 05:01:22;;;;;;;20.58;11.85;;;;;;;;;;5010250;28;20069;-89
2022/08/26 05:03:49;;;;;;;19.45;10.23;;;;;;;;;;5021747;28;20094;-90
2022/08/26 05:06:15;;;;;;;17.77;10.48;;;;;;;;;;5007127;28;20122;-89
2022/08/26 05:08:42;;;;;;;18.33;11.30;;;;;;;;;;4937754;28;20888;-89
2022/08/26 05:11:08;;;;;;;20.38;10.68;;;;;;;;;;5021147;28;20430;-88
2022/08/26 05:13:36;;;;;;;21.73;12.98;;;;;;;;;;5015259;28;20072;-87
2022/08/26 05:16:04;;;;;;;21.48;11.40;;;;;;;;;;5018467;28;20062;-87
2022/08/26 05:18:30;;;;;;;18.13;10.35;;;;;;;;;;5021521;28;20051;-88
2022/08/26 05:20:56;;;;;;;19.65;11.43;;;;;;;;;;5009743;28;20435;-87
2022/08/26 05:23:23;;;;;;;19.67;12.98;;;;;;;;;;4941599;28;20616;-87
2022/08/26 05:25:50;;;;;;;19.35;11.75;;;;;;;;;;5009396;28;20043;-87
2022/08/26 05:28:17;;;;;;;21.25;12.52;;;;;;;;;;5010566;28;20045;-87
2022/08/26 05:30:45;;;;;;;24.17;12.07;;;;;;;;;;5010584;28;20040;-87
2022/08/26 05:33:12;;;;;;;18.63;10.48;;;;;;;;;;5010264;28;20052;-87
2022/08/26 05:35:41;;;;;;;21.10;12.77;;;;;;;;;;5022328;28;20044;-87
2022/08/26 05:38:11;;;;;;;18.85;10.20;;;;;;;;;;5006910;28;20064;-87
2022/08/26 05:40:40;;;;;;;16.33;10.93;;;;;;;;;;4941967;28;20094;-87
2022/08/26 05:43:09;;;;;;;20.35;12.05;;;;;;;;;;4944180;28;20075;-87
2022/08/26 05:45:37;;;;;;;24.08;12.38;;;;;;;;;;5003472;28;20051;-87
2022/08/26 05:48:08;;;;;;;26.00;11.93;;;;;;;;;;5003086;28;20040;-87
2022/08/26 05:50:39;;;;;;;18.53;10.77;;;;;;;;;;5006671;28;20544;-88
2022/08/26 05:53:05;;;;;;;19.00;11.57;;;;;;;;;;5007197;28;20260;-86
2022/08/26 05:55:32;;;;;;;18.08;11.52;;;;;;;;;;5020779;28;20043;-87
2022/08/26 05:57:59;;;;;;;21.23;11.40;;;;;;;;;;5003176;28;20134;-87
2022/08/26 06:00:26;;;;;;;20.65;11.23;;;;;;;;;;5018981;28;20055;-87
2022/08/26 06:02:52;;;;;;;16.95;11.27;;;;;;;;;;5018525;28;20135;-88
2022/08/26 06:05:18;;;;;;;19.33;11.90;;;;;;;;;;4944384;28;20064;-87
2022/08/26 06:10:31;;;;;;;22.67;10.55;;;;;;;;;;4938909;28;20055;-87
2022/08/26 06:12:58;;;;;;;20.80;10.82;;;;;;;;;;5018367;28;20058;-89
2022/08/26 06:15:24;;;;;;;17.40;10.60;;;;;;;;;;5005888;28;20050;-84
2022/08/26 06:17:51;;;;;;;20.45;12.23;;;;;;;;;;4933201;28;20515;-85
2022/08/26 06:20:17;;;;;;;18.85;11.32;;;;;;;;;;4933150;28;20066;-84
2022/08/26 06:25:37;;;;;;;18.52;10.82;;;;;;;;;;4931483;28;20052;-84
2022/08/26 06:28:04;;;;;;;19.27;11.02;;;;;;;;;;5010226;28;20552;-84
2022/08/26 06:30:30;;;;;;;18.67;10.25;;;;;;;;;;5010944;28;20048;-84
2022/08/26 06:32:56;;;;;;;17.98;11.13;;;;;;;;;;4931301;28;20044;-84
2022/08/26 06:35:22;;;;;;;18.88;11.00;;;;;;;;;;4931040;28;20044;-86
2022/08/26 06:37:48;;;;;;;19.67;10.85;;;;;;;;;;5010729;28;20032;-86
2022/08/26 06:40:14;;;;;;;20.10;12.27;;;;;;;;;;5013305;28;20052;-86
2022/08/26 06:42:40;;;;;;;14.95;10.50;;;;;;;;;;5017664;28;20522;-86
2022/08/26 06:45:07;;;;;;;16.80;10.82;;;;;;;;;;5015680;28;20055;-86
2022/08/26 06:47:33;;;;;;;14.82;8.85;;;;;;;;;;5014633;28;20036;-86
2022/08/26 06:50:00;;;;;;;14.93;9.30;;;;;;;;;;5005473;28;20058;-86
2022/08/26 06:52:27;;;;;;;21.05;10.82;;;;;;;;;;5016942;28;20071;-85
2022/08/26 06:54:53;;;;;;;16.20;10.23;;;;;;;;;;5010619;28;20561;-86
2022/08/26 06:57:21;;;;;;;18.77;11.07;;;;;;;;;;4999476;28;20056;-86
2022/08/26 06:59:47;;;;;;;15.23;9.95;;;;;;;;;;5013327;28;20047;-86
2022/08/26 07:02:13;;;;;;;15.20;9.10;;;;;;;;;;4931852;28;20979;-86
2022/08/26 07:04:43;;;;;;;16.02;9.00;;;;;;;;;;5015653;28;20059;-85
2022/08/26 07:07:12;;;;;;;13.05;7.90;;;;;;;;;;5001532;28;20056;-87
2022/08/26 07:09:38;;;;;;;13.95;8.98;;;;;;;;;;5021843;28;20043;-87
2022/08/26 07:12:05;;;;;;;14.90;9.43;;;;;;;;;;4940700;28;20044;-89
2022/08/26 07:14:31;;;;;;;14.57;8.73;;;;;;;;;;4945058;28;20056;-88
2022/08/26 07:17:00;;;;;;;19.17;10.60;;;;;;;;;;4946229;28;20040;-88
2022/08/26 07:19:26;;;;;;;16.88;8.77;;;;;;;;;;5008928;28;20104;-87
2022/08/26 07:21:52;;;;;;;12.18;8.13;;;;;;;;;;5027068;28;20113;-88
2022/08/26 07:24:18;;;;;;;15.07;10.73;;;;;;;;;;5026036;28;20036;-88
2022/08/26 07:26:44;;;;;;;13.15;8.98;;;;;;;;;;5019703;28;20036;-89
2022/08/26 07:29:11;;;;;;;11.82;8.25;;;;;;;;;;5004821;28;20055;-88
2022/08/26 07:31:37;;;;;;;12.18;9.38;;;;;;;;;;5019545;28;20048;-88
2022/08/26 07:34:05;;;;;;;16.77;10.90;;;;;;;;;;5018097;28;20042;-89
2022/08/26 07:36:31;;;;;;;15.55;9.20;;;;;;;;;;4936056;28;20036;-88
2022/08/26 07:38:57;;;;;;;13.02;8.95;;;;;;;;;;5015407;28;20132;-88
2022/08/26 07:41:24;;;;;;;15.15;9.52;;;;;;;;;;5015875;28;20058;-90
2022/08/26 07:43:51;;;;;;;21.70;10.18;;;;;;;;;;5018655;28;20045;-92
2022/08/26 07:46:18;;;;;;;12.57;8.32;;;;;;;;;;5017516;28;20040;-89
2022/08/26 07:48:45;;;;;;;18.85;8.88;;;;;;;;;;5001557;28;20052;-90
2022/08/26 07:51:11;;;;;;;19.05;9.65;;;;;;;;;;5017915;28;20126;-90
2022/08/26 07:53:38;;;;;;;13.25;7.97;;;;;;;;;;5015272;28;20063;-89
2022/08/26 07:56:04;;;;;;;19.35;8.50;;;;;;;;;;4998409;28;20102;-89
2022/08/26 07:58:31;;;;;;;15.32;7.82;;;;;;;;;;5008837;28;20043;-89
2022/08/26 08:00:57;;;;;;;14.80;8.23;;;;;;;;;;4935170;28;20053;-88
2022/08/26 08:03:23;;;;;;;10.10;6.95;;;;;;;;;;4935280;28;20522;-89
2022/08/26 08:05:49;;;;;;;10.07;7.82;;;;;;;;;;4998506;28;20545;-89
2022/08/26 08:08:15;;;;;;;11.20;7.32;;;;;;;;;;5018057;28;20057;-92
2022/08/26 08:10:43;;;;;;;11.15;6.90;;;;;;;;;;5011580;28;20053;-89
2022/08/26 08:13:10;;;;;;;19.50;8.45;;;;;;;;;;5010652;28;20042;-89
2022/08/26 08:15:36;;;;;;;10.13;6.07;;;;;;;;;;5026387;28;20049;-90
2022/08/26 08:18:03;;;;;;;17.25;8.27;;;;;;;;;;5026221;28;20132;-88
2022/08/26 08:20:30;;;;;;;11.93;7.10;;;;;;;;;;5010757;28;20870;-88
2022/08/26 08:22:56;;;;;;;12.82;7.32;;;;;;;;;;5010820;28;20600;-88
2022/08/26 08:25:23;;;;;;;8.73;5.53;;;;;;;;;;5026609;28;20823;-89
2022/08/26 08:27:49;;;;;;;10.18;6.38;;;;;;;;;;5029296;28;20042;-88
2022/08/26 08:30:16;;;;;;;10.02;6.72;;;;;;;;;;5012494;28;20069;-88
2022/08/26 08:32:42;;;;;;;8.65;6.78;;;;;;;;;;5030159;28;20034;-89
2022/08/26 08:35:09;;;;;;;8.85;6.70;;;;;;;;;;5024036;28;20771;-89
2022/08/26 08:37:35;;;;;;;9.50;6.45;;;;;;;;;;5018672;28;20094;-89
2022/08/26 08:40:02;;;;;;;10.52;6.70;;;;;;;;;;5027695;28;20049;-88
2022/08/26 08:42:37;;;;;;;8.85;5.22;;;;;;;;;;5013569;28;20130;-89
2022/08/26 08:45:07;;;;;;;10.30;6.38;;;;;;;;;;5013412;28;20108;-89
2022/08/26 08:47:36;;;;;;;10.27;5.35;;;;;;;;;;5026666;28;20038;-90
2022/08/26 08:50:16;;;;;;;12.32;5.80;;;;;;;;;;5012208;28;20046;-89
2022/08/26 08:52:44;;;;;;;8.13;5.50;;;;;;;;;;5013146;28;20144;-89
2022/08/26 08:55:13;;;;;;;10.40;5.82;;;;;;;;;;5021063;28;20046;-89
2022/08/26 08:57:51;;;;;;;19.73;5.45;;;;;;;;;;5016040;28;20801;-89
2022/08/26 09:00:18;;;;;;;8.98;5.13;;;;;;;;;;5032442;28;20073;-89
2022/08/26 09:03:02;;;;;;;8.93;5.40;;;23.10;99.90;;;;;;5032440;28;20856;-90
2022/08/26 09:05:35;;;;;;;8.20;5.40;;;22.00;99.90;;;;;;5017573;28;20085;-90
2022/08/26 09:08:11;;;;;;;11.38;5.38;;;22.00;99.90;;;;;;4957434;28;20141;-89
2022/08/26 09:10:43;;;;;;;7.45;4.50;;;22.00;99.90;;;;;;5000095;28;20066;-90
2022/08/26 09:13:17;;;;;;;7.10;4.65;;;22.00;99.90;;;;;;4999911;28;20044;-89
2022/08/26 09:16:08;;;;;;;8.02;5.18;;;22.00;99.90;;;;;;4937042;28;20803;-89
2022/08/26 09:18:48;;;;;;;6.70;4.35;;;22.10;99.90;;;;;;5002061;28;20928;-89
2022/08/26 09:21:16;;;;;;;6.93;5.07;;;22.00;99.90;;;;;;5001080;28;20132;-89
2022/08/26 09:23:43;;;;;;;5.68;3.97;;;22.00;99.90;;;;;;5000171;28;20059;-89
2022/08/26 09:26:41;;;;;;;6.43;4.18;;;22.00;99.90;;;;;;5007693;28;20635;-89
2022/08/26 09:29:24;;;;;;;4.28;2.83;;;22.10;99.90;;;;;;5001563;28;20793;-89
2022/08/26 09:31:51;;;;;;;7.30;3.40;;;22.30;99.90;;;;;;4982951;28;20098;-90
2022/08/26 09:34:23;;;;;;;4.65;2.88;;;22.30;99.90;;;;;;5008355;28;20043;-89
2022/08/26 09:36:58;;;;;;;25.30;4.70;;;22.40;99.90;;;;;;5003450;28;20888;-89
2022/08/26 09:39:26;;;;;;;16.60;4.32;;;22.50;99.90;;;;;;5000166;28;20051;-88
2022/08/26 09:42:21;;;;;;;5.45;2.88;;;22.40;99.90;;;;;;5016164;28;20079;-89
2022/08/26 09:44:59;;;;;;;6.72;3.53;;;22.50;99.90;;;;;;5012714;28;20086;-89
2022/08/26 09:47:57;;;;;;;5.82;3.50;;;22.60;99.90;;;;;;5016231;28;20044;-89
2022/08/26 09:50:25;;;;;;;7.28;3.42;;;22.60;99.90;;;;;;4937621;28;20070;-89
2022/08/26 09:53:24;;;;;;;5.95;3.88;;;22.60;99.90;;;;;;4935141;28;20090;-88
2022/08/26 09:55:53;;;;;;;6.40;4.03;;;;;;;;;;4999027;28;20060;-89
2022/08/26 09:58:32;;;;;;;8.48;3.05;;;;;;;;;;5019346;28;20086;-88
2022/08/26 10:01:00;;;;;;;5.53;3.67;;;;;;;;;;5002013;28;20130;-87
2022/08/26 10:03:36;;;;;;;4.82;3.30;;;;;;;;;;4934092;28;20049;-86
2022/08/26 10:06:04;;;;;;;6.22;3.60;;;;;;;;;;5015512;28;20063;-86
2022/08/26 10:08:33;;;;;;;4.85;3.13;;;;;;;;;;4995061;28;20060;-87
2022/08/26 10:11:01;;;;;;;5.18;3.20;;;;;;;;;;5015576;28;20527;-87
2022/08/26 10:13:30;;;;;;;5.28;3.25;;;;;;;;;;4995944;28;20040;-88
2022/08/26 10:16:03;;;;;;;7.35;3.38;;;;;;;;;;5012419;28;20036;-88
2022/08/26 10:18:35;;;;;;;5.38;3.63;;;;;;;;;;5010987;28;20035;-87
2022/08/26 10:21:07;;;;;;;5.32;4.07;;;;;;;;;;4997773;28;20472;-87
2022/08/26 10:23:37;;;;;;;3.95;2.95;;;;;;;;;;4931876;28;20047;-87
2022/08/26 10:26:19;;;;;;;6.90;3.30;;;;;;;;;;4999542;28;20050;-87
2022/08/26 10:28:44;;;;;;;;;;;;;;;;;;4941267;28;20075;-88
2022/08/26 10:31:35;;;;;;;5.15;3.65;;;;;;;;;;5022689;28;19923;-87
2022/08/26 10:34:01;;;;;;;4.38;2.88;;;;;;;;;;4939023;28;20055;-87
2022/08/26 10:36:48;;;;;;;4.22;3.10;;;;;;;;;;4932833;28;20086;-85
2022/08/26 10:39:19;;;;;;;4.78;3.00;;;;;;;;;;4995583;28;20091;-84
2022/08/26 10:41:47;;;;;;;11.75;3.88;;;;;;;;;;4994859;28;20048;-84
2022/08/26 10:44:14;;;;;;;8.75;4.00;;;;;;;;;;4993307;28;20079;-85
2022/08/26 10:46:43;;;;;;;5.55;3.33;;;;;;;;;;5010811;28;20522;-85
2022/08/26 10:49:12;;;;;;;4.95;3.00;;;;;;;;;;4995355;28;20142;-84
2022/08/26 10:51:58;;;;;;;5.80;2.85;;;;;;;;;;4997866;28;20036;-84
2022/08/26 10:54:33;;;;;;;3.88;2.88;;;;;;;;;;4934803;28;20062;-84
2022/08/26 10:57:04;;;;;;;4.45;3.42;;;;;;;;;;5004541;28;20039;-85
2022/08/26 10:59:39;;;;;;;4.22;2.50;;;;;;;;;;4994254;28;20596;-84
2022/08/26 11:02:08;;;;;;;6.03;2.47;;;;;;;;;;4993844;28;20051;-83
2022/08/26 11:04:47;;;;;;;4.50;3.05;;;;;;;;;;4993510;28;20048;-84
2022/08/26 11:07:32;;;;;;;4.28;3.22;;;;;;;;;;5022520;28;20185;-84
2022/08/26 11:10:18;;;;;;;5.35;3.38;;;;;;;;;;5007924;28;20048;-83
2022/08/26 11:12:44;;;;;;;6.90;3.17;;;;;;;;;;4987629;28;20688;-84
2022/08/26 11:15:33;;;;;;;7.88;3.10;;;;;;;;;;5023286;28;20055;-84
2022/08/26 11:18:09;;;;;;;4.57;2.80;;;;;;;;;;5008117;28;20042;-85
2022/08/26 11:20:40;;;;;;;4.75;3.28;;;;;;;;;;5009166;28;20046;-84
2022/08/26 11:23:12;;;;;;;4.55;2.90;;;;;;;;;;5007930;28;20073;-86
2022/08/26 11:26:00;;;;;;;4.40;2.83;;;;;;;;;;5008556;28;20042;-85
2022/08/26 11:28:33;;;;;;;4.18;3.08;;;;;;;;;;5006788;28;20114;-86
2022/08/26 11:31:04;;;;;;;3.42;2.35;;;;;;;;;;5009148;28;20497;-86
2022/08/26 11:33:43;;;;;;;6.80;3.10;;;;;;;;;;5009973;28;20050;-86
2022/08/26 11:36:09;;;;;;;6.95;3.63;;;;;;;;;;5006881;28;20456;-86
2022/08/26 11:38:41;;;;;;;3.70;2.70;;;;;;;;;;5023598;28;20046;-86
2022/08/26 11:41:11;;;;;;;3.30;2.63;;;;;;;;;;5008866;28;20069;-86
2022/08/26 11:43:38;;;;;;;6.63;2.93;;;;;;;;;;5009007;28;20448;-86
2022/08/26 11:46:06;;;;;;;5.10;3.35;;;;;;;;;;5007400;28;20042;-85
2022/08/26 11:48:34;;;;;;;3.80;2.72;;;;;;;;;;5023345;28;20137;-85
2022/08/26 11:51:08;;;;;;;5.22;2.80;;;;;;;;;;5012732;28;20145;-84
2022/08/26 11:53:36;;;;;;;3.75;2.53;;;;;;;;;;5008893;28;20046;-86
2022/08/26 11:56:10;;;;;;;5.30;3.30;;;;;;;;;;5023402;28;20046;-85
2022/08/26 11:58:41;;;;;;;6.07;2.90;;;;;;;;;;5008238;28;20690;-85
2022/08/26 12:01:08;;;;;;;5.32;2.97;;;;;;;;;;5007228;28;20040;-85
2022/08/26 12:04:00;;;;;;;3.92;3.42;;;;;;;;;;5023813;28;20065;-85
2022/08/26 12:06:33;;;;;;;4.35;2.67;;;;;;;;;;5005271;28;20113;-88
2022/08/26 12:09:00;;;;;;;4.82;3.10;;;;;;;;;;5011998;28;20048;-88
2022/08/26 12:11:31;;;;;;;5.13;3.22;;;;;;;;;;4996228;28;20280;-88
2022/08/26 12:14:05;;;;;;;4.57;3.43;;;;;;;;;;4930470;28;20421;-88
2022/08/26 12:16:33;;;;;;;4.25;3.05;;;;;;;;;;4994931;28;20703;-88
2022/08/26 12:18:59;;;;;;;8.45;3.00;;;;;;;;;;4992947;28;20524;-87
2022/08/26 12:21:30;;;;;;;7.40;2.78;;;;;;;;;;4994719;28;20508;-87
2022/08/26 12:24:00;;;;;;;12.17;3.27;;;;;;;;;;4929472;28;20147;-88
2022/08/26 12:26:26;;;;;;;3.70;2.58;;;;;;;;;;4930105;28;20267;-88
2022/08/26 12:28:53;;;;;;;4.88;2.53;;;;;;;;;;4999312;28;20095;-88
2022/08/26 12:31:21;;;;;;;4.97;2.83;;;;;;;;;;5014798;28;20703;-88
2022/08/26 12:33:48;;;;;;;7.55;4.47;;;;;;;;;;4999360;28;20065;-88
2022/08/26 12:36:19;;;;;;;3.20;2.60;;;;;;;;;;4998918;28;20048;-88
2022/08/26 12:38:45;;;;;;;;;;;;;;;;;;4999045;28;20036;-87
2022/08/26 12:41:12;;;;;;;4.13;2.83;;;;;;;;;;5015775;28;19923;-88
2022/08/26 12:43:40;;;;;;;2.90;2.13;;;;;;;;;;4999938;28;20044;-88
2022/08/26 12:46:07;;;;;;;4.72;2.00;;;;;;;;;;5016270;28;20055;-88
2022/08/26 12:48:35;;;;;;;3.38;2.05;;;;;;;;;;5016198;28;20044;-88
2022/08/26 12:51:01;;;;;;;3.78;2.47;;;;;;;;;;5015462;28;20035;-88
2022/08/26 12:53:31;;;;;;;3.17;2.08;;;;;;;;;;4933846;28;20564;-88
2022/08/26 12:55:59;;;;;;;5.78;2.50;;;;;;;;;;5014997;28;20039;-88
2022/08/26 12:58:25;;;;;;;7.05;2.60;;;;;;;;;;5014802;28;20040;-88
2022/08/26 13:00:54;;;;;;;13.85;3.33;;;;;;;;;;5013706;28;20044;-88
2022/08/26 13:03:36;;;;;;;4.88;2.33;;;;;;;;;;4932697;28;20044;-88
2022/08/26 13:06:28;;;;;;;3.60;1.67;;;;;;;;;;5014837;28;20090;-88
2022/08/26 13:08:57;;;;;;;4.30;2.08;;;;;;;;;;5015781;28;20064;-88
2022/08/26 13:11:31;;;;;;;2.70;2.05;;;;;;;;;;4998230;28;20462;-88
2022/08/26 13:13:59;;;;;;;3.80;2.70;;;;;;;;;;4998786;28;20179;-88
2022/08/26 13:16:25;;;;;;;4.82;2.08;;;;;;;;;;4932500;28;20044;-87
2022/08/26 13:18:58;;;;;;;2.20;1.73;;;;;;;;;;5016856;28;20075;-88
2022/08/26 13:21:27;;;;;;;2.38;1.83;;;;;;;;;;5005876;28;20048;-88
2022/08/26 13:23:53;;;;;;;4.80;1.95;;;;;;;;;;5006104;28;20209;-88
2022/08/26 13:26:20;;;;;;;3.55;1.80;;;;;;;;;;4939208;28;20118;-88
2022/08/26 13:28:46;;;;;;;4.75;2.30;;;;;;;;;;5007786;28;20047;-88
2022/08/26 13:31:13;;;;;;;3.83;1.80;;;;;;;;;;5027664;28;20051;-88
2022/08/26 13:33:40;;;;;;;2.70;1.98;;;;;;;;;;5017923;28;20051;-88
2022/08/26 13:36:06;;;;;;;2.63;1.77;;;;;;;;;;5016649;28;20040;-88
2022/08/26 13:38:33;;;;;;;2.50;1.80;;;;;;;;;;5015331;28;20066;-88
2022/08/26 13:40:59;;;;;;;2.45;1.77;;;;;;;;;;5031116;28;20044;-88
2022/08/26 13:43:26;;;;;;;4.05;2.28;;;;;;;;;;5015628;28;20433;-87
2022/08/26 13:45:53;;;;;;;4.30;2.30;;;;;;;;;;4998788;28;20052;-88
2022/08/26 13:48:19;;;;;;;2.80;1.80;;;;;;;;;;5016247;28;20060;-88
2022/08/26 13:50:45;;;;;;;2.88;1.80;;;;;;;;;;4933549;28;20040;-89
2022/08/26 13:53:13;;;;;;;2.42;1.60;;;;;;;;;;5004734;28;20927;-87
2022/08/26 13:55:39;;;;;;;6.15;1.80;;;;;;;;;;5013586;28;20088;-89
2022/08/26 13:58:05;;;;;;;2.10;1.60;;;;;;;;;;4998578;28;20047;-88
2022/08/26 14:00:32;;;;;;;3.65;1.73;;;;;;;;;;4932468;28;20128;-88
2022/08/26 14:02:59;;;;;;;4.35;1.90;;;;;;;;;;4935457;28;20040;-89
2022/08/26 14:05:25;;;;;;;4.22;2.20;;;;;;;;;;5013774;28;20067;-89
2022/08/26 14:07:52;;;;;;;2.70;1.77;;;;;;;;;;5000703;28;20147;-89
2022/08/26 14:10:18;;;;;;;2.78;1.88;;;;;;;;;;4996749;28;20044;-88
2022/08/26 14:12:44;;;;;;;4.25;2.30;;;;;;;;;;5002530;28;20040;-88
2022/08/26 14:15:11;;;;;;;2.28;1.55;;;;;;;;;;5009665;28;20129;-89
2022/08/26 14:17:38;;;;;;;5.10;2.40;;;;;;;;;;5014261;28;20048;-89
2022/08/26 14:20:05;;;;;;;3.08;1.98;;;;;;;;;;4997610;28;20160;-89
2022/08/26 14:22:31;;;;;;;11.05;2.88;;;;;;;;;;4933474;28;20056;-89
2022/08/26 14:24:58;;;;;;;4.63;2.17;;;;;;;;;;4998544;28;20056;-89
2022/08/26 14:27:24;;;;;;;3.72;1.58;;;;;;;;;;4997440;28;20059;-89
2022/08/26 14:29:51;;;;;;;2.50;1.73;;;;;;;;;;4932623;28;20076;-89
2022/08/26 14:32:23;;;;;;;3.42;2.10;;;;;;;;;;4931872;28;20052;-89
2022/08/26 14:34:50;;;;;;;3.70;2.10;;;;;;;;;;4997886;28;20064;-89
2022/08/26 14:37:17;;;;;;;4.00;1.90;;;;;;;;;;5014064;28;20032;-89
2022/08/26 14:39:44;;;;;;;3.15;2.22;;;;;;;;;;5011278;28;20040;-89
2022/08/26 14:42:10;;;;;;;3.17;2.53;;;;;;;;;;4931614;28;20040;-89